sensor_id;sensor_type;location;lat;lon;timestamp;pressure;altitude;pressure_sealevel;temperature;humidity
47556;BME280;33291;46.222;26.460;2022-12-07T00:01:35;96243.31;;;0.64;100.00
47556;BME280;33291;46.222;26.460;2022-12-07T00:04:03;96227.94;;;0.64;100.00
47556;BME280;33291;46.222;26.460;2022-12-07T00:06:31;96235.56;;;0.66;100.00
47556;BME280;33291;46.222;26.460;2022-12-07T00:08:57;96225.22;;;0.67;100.00
47556;BME280;33291;46.222;26.460;2022-12-07T00:11:23;96233.56;;;0.71;100.00
47556;BME280;33291;46.222;26.460;2022-12-07T00:14:00;96220.91;;;0.68;100.00
47556;BME280;33291;46.222;26.460;2022-12-07T00:16:29;96234.66;;;0.67;100.00
47556;BME280;33291;46.222;26.460;2022-12-07T00:18:56;96221.16;;;0.63;100.00
47556;BME280;33291;46.222;26.460;2022-12-07T00:21:27;96229.59;;;0.65;100.00
47556;BME280;33291;46.222;26.460;2022-12-07T00:23:53;96233.63;;;0.69;100.00
47556;BME280;33291;46.222;26.460;2022-12-07T00:26:24;96215.56;;;0.57;100.00
47556;BME280;33291;46.222;26.460;2022-12-07T00:28:53;96223.47;;;0.68;100.00
47556;BME280;33291;46.222;26.460;2022-12-07T00:31:21;96226.63;;;0.73;100.00
47556;BME280;33291;46.222;26.460;2022-12-07T00:33:48;96218.84;;;0.75;100.00
47556;BME280;33291;46.222;26.460;2022-12-07T00:36:16;96225.59;;;0.76;100.00
47556;BME280;33291;46.222;26.460;2022-12-07T00:38:42;96218.84;;;0.75;100.00
47556;BME280;33291;46.222;26.460;2022-12-07T00:41:16;96226.44;;;0.76;100.00
47556;BME280;33291;46.222;26.460;2022-12-07T00:43:43;96205.34;;;0.71;100.00
47556;BME280;33291;46.222;26.460;2022-12-07T00:46:09;96207.25;;;0.67;100.00
47556;BME280;33291;46.222;26.460;2022-12-07T00:48:35;96204.78;;;0.66;100.00
47556;BME280;33291;46.222;26.460;2022-12-07T00:51:02;96229.91;;;0.75;100.00
47556;BME280;33291;46.222;26.460;2022-12-07T00:53:28;96210.72;;;0.66;100.00
47556;BME280;33291;46.222;26.460;2022-12-07T00:55:54;96210.72;;;0.66;100.00
47556;BME280;33291;46.222;26.460;2022-12-07T00:58:22;96224.97;;;0.72;100.00
47556;BME280;33291;46.222;26.460;2022-12-07T01:00:47;96224.41;;;0.67;100.00
47556;BME280;33291;46.222;26.460;2022-12-07T01:03:15;96214.44;;;0.61;100.00
47556;BME280;33291;46.222;26.460;2022-12-07T01:05:52;96232.25;;;0.64;100.00
47556;BME280;33291;46.222;26.460;2022-12-07T01:08:18;96223.16;;;0.58;100.00
47556;BME280;33291;46.222;26.460;2022-12-07T01:10:43;96229.84;;;0.61;100.00
47556;BME280;33291;46.222;26.460;2022-12-07T01:13:09;96231.56;;;0.60;100.00
47556;BME280;33291;46.222;26.460;2022-12-07T01:15:39;96228.19;;;0.60;100.00
47556;BME280;33291;46.222;26.460;2022-12-07T01:18:05;96233.06;;;0.64;100.00
47556;BME280;33291;46.222;26.460;2022-12-07T01:20:30;96228.03;;;0.63;100.00
47556;BME280;33291;46.222;26.460;2022-12-07T01:22:56;96222.00;;;0.64;100.00
47556;BME280;33291;46.222;26.460;2022-12-07T01:25:21;96222.00;;;0.64;100.00
47556;BME280;33291;46.222;26.460;2022-12-07T01:27:47;96228.59;;;0.68;100.00
47556;BME280;33291;46.222;26.460;2022-12-07T01:30:13;96216.13;;;0.62;100.00
47556;BME280;33291;46.222;26.460;2022-12-07T01:32:38;96215.84;;;0.66;100.00
47556;BME280;33291;46.222;26.460;2022-12-07T01:35:04;96220.91;;;0.68;100.00
47556;BME280;33291;46.222;26.460;2022-12-07T01:37:37;96211.00;;;0.62;100.00
47556;BME280;33291;46.222;26.460;2022-12-07T01:40:05;96224.41;;;0.67;100.00
47556;BME280;33291;46.222;26.460;2022-12-07T01:42:32;96215.22;;;0.63;100.00
47556;BME280;33291;46.222;26.460;2022-12-07T01:48:00;96207.09;;;0.55;100.00
47556;BME280;33291;46.222;26.460;2022-12-07T01:50:27;96212.13;;;0.56;100.00
47556;BME280;33291;46.222;26.460;2022-12-07T01:52:58;96210.44;;;0.57;100.00
47556;BME280;33291;46.222;26.460;2022-12-07T01:55:25;96214.06;;;0.52;100.00
47556;BME280;33291;46.222;26.460;2022-12-07T01:57:52;96213.00;;;0.57;100.00
47556;BME280;33291;46.222;26.460;2022-12-07T02:00:19;96222.47;;;0.55;100.00
47556;BME280;33291;46.222;26.460;2022-12-07T02:02:55;96221.84;;;0.51;100.00
47556;BME280;33291;46.222;26.460;2022-12-07T02:05:24;96217.78;;;0.47;100.00
47556;BME280;33291;46.222;26.460;2022-12-07T02:07:51;96216.88;;;0.48;100.00
47556;BME280;33291;46.222;26.460;2022-12-07T02:10:19;96216.88;;;0.48;100.00
47556;BME280;33291;46.222;26.460;2022-12-07T02:12:49;96211.09;;;0.44;100.00
47556;BME280;33291;46.222;26.460;2022-12-07T02:15:15;96204.22;;;0.45;100.00
47556;BME280;33291;46.222;26.460;2022-12-07T02:17:52;96215.88;;;0.50;100.00
47556;BME280;33291;46.222;26.460;2022-12-07T02:20:33;96217.59;;;0.50;100.00
47556;BME280;33291;46.222;26.460;2022-12-07T02:31:31;96204.31;;;0.43;100.00
47556;BME280;33291;46.222;26.460;2022-12-07T02:34:04;96210.34;;;0.42;100.00
47556;BME280;33291;46.222;26.460;2022-12-07T02:36:39;96208.78;;;0.40;100.00
47556;BME280;33291;46.222;26.460;2022-12-07T02:39:07;96214.41;;;0.46;100.00
47556;BME280;33291;46.222;26.460;2022-12-07T02:41:43;96206.16;;;0.41;100.00
47556;BME280;33291;46.222;26.460;2022-12-07T02:44:14;96224.47;;;0.49;100.00
47556;BME280;33291;46.222;26.460;2022-12-07T02:46:46;96216.78;;;0.49;100.00
47556;BME280;33291;46.222;26.460;2022-12-07T02:49:15;96218.97;;;0.41;100.00
47556;BME280;33291;46.222;26.460;2022-12-07T02:51:43;96202.09;;;0.37;100.00
47556;BME280;33291;46.222;26.460;2022-12-07T02:54:17;96184.81;;;0.25;100.00
47556;BME280;33291;46.222;26.460;2022-12-07T02:59:26;96214.56;;;0.43;100.00
47556;BME280;33291;46.222;26.460;2022-12-07T03:12:29;96208.97;;;0.37;100.00
47556;BME280;33291;46.222;26.460;2022-12-07T03:15:05;96189.53;;;0.32;100.00
47556;BME280;33291;46.222;26.460;2022-12-07T03:17:35;96187.94;;;0.30;100.00
47556;BME280;33291;46.222;26.460;2022-12-07T03:20:05;96197.22;;;0.32;100.00
47556;BME280;33291;46.222;26.460;2022-12-07T03:22:34;96192.91;;;0.33;100.00
47556;BME280;33291;46.222;26.460;2022-12-07T03:25:05;96197.31;;;0.31;100.00
47556;BME280;33291;46.222;26.460;2022-12-07T03:30:19;96169.78;;;0.19;100.00
47556;BME280;33291;46.222;26.460;2022-12-07T03:32:57;96168.69;;;0.23;100.00
47556;BME280;33291;46.222;26.460;2022-12-07T03:38:00;96186.63;;;0.23;100.00
47556;BME280;33291;46.222;26.460;2022-12-07T03:40:40;96172.91;;;0.24;100.00
47556;BME280;33291;46.222;26.460;2022-12-07T03:43:06;96174.22;;;0.15;100.00
47556;BME280;33291;46.222;26.460;2022-12-07T03:45:43;96149.53;;;-0.02;100.00
47556;BME280;33291;46.222;26.460;2022-12-07T03:48:29;96170.84;;;0.14;100.00
47556;BME280;33291;46.222;26.460;2022-12-07T03:53:43;96174.16;;;0.16;100.00
47556;BME280;33291;46.222;26.460;2022-12-07T03:56:11;96168.53;;;0.10;100.00
47556;BME280;33291;46.222;26.460;2022-12-07T03:58:38;96181.25;;;0.11;100.00
47556;BME280;33291;46.222;26.460;2022-12-07T04:01:04;96169.44;;;0.09;100.00
47556;BME280;33291;46.222;26.460;2022-12-07T04:03:29;96180.03;;;0.19;100.00
47556;BME280;33291;46.222;26.460;2022-12-07T04:05:55;96165.97;;;0.10;100.00
47556;BME280;33291;46.222;26.460;2022-12-07T04:08:21;96147.88;;;-0.03;100.00
47556;BME280;33291;46.222;26.460;2022-12-07T04:10:46;96171.75;;;0.13;100.00
47556;BME280;33291;46.222;26.460;2022-12-07T04:13:12;96158.88;;;-0.01;100.00
47556;BME280;33291;46.222;26.460;2022-12-07T04:15:37;96169.34;;;0.10;100.00
47556;BME280;33291;46.222;26.460;2022-12-07T04:18:03;96174.06;;;0.02;100.00
47556;BME280;33291;46.222;26.460;2022-12-07T04:20:28;96173.00;;;0.06;100.00
47556;BME280;33291;46.222;26.460;2022-12-07T04:22:54;96184.06;;;0.07;100.00
47556;BME280;33291;46.222;26.460;2022-12-07T04:25:19;96180.88;;;0.03;100.00
47556;BME280;33291;46.222;26.460;2022-12-07T04:27:45;96172.94;;;0.08;100.00
47556;BME280;33291;46.222;26.460;2022-12-07T04:30:10;96194.06;;;0.11;100.00
47556;BME280;33291;46.222;26.460;2022-12-07T04:32:36;96191.34;;;0.14;100.00
47556;BME280;33291;46.222;26.460;2022-12-07T04:35:02;96182.75;;;0.15;100.00
47556;BME280;33291;46.222;26.460;2022-12-07T04:37:28;96193.16;;;0.12;100.00
47556;BME280;33291;46.222;26.460;2022-12-07T04:39:53;96196.56;;;0.13;100.00
47556;BME280;33291;46.222;26.460;2022-12-07T04:42:19;96186.31;;;0.13;100.00
47556;BME280;33291;46.222;26.460;2022-12-07T04:44:44;96202.06;;;0.21;100.00
47556;BME280;33291;46.222;26.460;2022-12-07T04:47:10;96196.69;;;0.26;100.00
47556;BME280;33291;46.222;26.460;2022-12-07T04:49:35;96180.13;;;0.17;100.00
47556;BME280;33291;46.222;26.460;2022-12-07T04:52:01;96208.44;;;0.30;100.00
47556;BME280;33291;46.222;26.460;2022-12-07T04:54:26;96204.22;;;0.29;100.00
47556;BME280;33291;46.222;26.460;2022-12-07T04:56:52;96206.66;;;0.32;100.00
47556;BME280;33291;46.222;26.460;2022-12-07T04:59:18;96204.81;;;0.34;100.00
47556;BME280;33291;46.222;26.460;2022-12-07T05:01:44;96194.13;;;0.26;100.00
47556;BME280;33291;46.222;26.460;2022-12-07T05:04:10;96184.31;;;0.18;100.00
47556;BME280;33291;46.222;26.460;2022-12-07T05:06:35;96185.81;;;0.22;100.00
47556;BME280;33291;46.222;26.460;2022-12-07T05:09:02;96206.88;;;0.27;100.00
47556;BME280;33291;46.222;26.460;2022-12-07T05:11:28;96203.50;;;0.27;100.00
47556;BME280;33291;46.222;26.460;2022-12-07T05:14:14;96199.25;;;0.26;100.00
47556;BME280;33291;46.222;26.460;2022-12-07T05:16:41;96187.28;;;0.10;100.00
47556;BME280;33291;46.222;26.460;2022-12-07T05:19:07;96199.44;;;0.23;100.00
47556;BME280;33291;46.222;26.460;2022-12-07T05:21:33;96209.13;;;0.33;100.00
47556;BME280;33291;46.222;26.460;2022-12-07T05:23:59;96203.84;;;0.37;100.00
47556;BME280;33291;46.222;26.460;2022-12-07T05:26:25;96212.34;;;0.37;100.00
47556;BME280;33291;46.222;26.460;2022-12-07T05:28:52;96203.06;;;0.34;100.00
47556;BME280;33291;46.222;26.460;2022-12-07T05:31:18;96201.53;;;0.32;100.00
47556;BME280;33291;46.222;26.460;2022-12-07T05:33:44;96186.63;;;0.23;100.00
47556;BME280;33291;46.222;26.460;2022-12-07T05:36:09;96196.53;;;0.29;100.00
47556;BME280;33291;46.222;26.460;2022-12-07T05:38:35;96213.25;;;0.36;100.00
47556;BME280;33291;46.222;26.460;2022-12-07T05:41:02;96219.22;;;0.37;100.00
47556;BME280;33291;46.222;26.460;2022-12-07T05:43:28;96207.63;;;0.29;100.00
47556;BME280;33291;46.222;26.460;2022-12-07T05:45:54;96222.03;;;0.32;100.00
47556;BME280;33291;46.222;26.460;2022-12-07T05:48:19;96217.78;;;0.31;100.00
47556;BME280;33291;46.222;26.460;2022-12-07T05:50:48;96221.78;;;0.37;100.00
47556;BME280;33291;46.222;26.460;2022-12-07T05:53:14;96218.38;;;0.36;100.00
47556;BME280;33291;46.222;26.460;2022-12-07T05:55:39;96220.28;;;0.32;100.00
47556;BME280;33291;46.222;26.460;2022-12-07T05:58:05;96222.16;;;0.29;100.00
47556;BME280;33291;46.222;26.460;2022-12-07T06:00:48;96233.09;;;0.32;100.00
47556;BME280;33291;46.222;26.460;2022-12-07T06:03:14;96228.03;;;0.31;100.00
47556;BME280;33291;46.222;26.460;2022-12-07T06:05:40;96231.91;;;0.22;100.00
47556;BME280;33291;46.222;26.460;2022-12-07T06:08:05;96242.81;;;0.26;100.00
47556;BME280;33291;46.222;26.460;2022-12-07T06:10:31;96232.41;;;0.29;100.00
47556;BME280;33291;46.222;26.460;2022-12-07T06:12:56;96222.31;;;0.26;100.00
47556;BME280;33291;46.222;26.460;2022-12-07T06:15:22;96235.72;;;0.31;100.00
47556;BME280;33291;46.222;26.460;2022-12-07T06:17:48;96229.19;;;0.25;100.00
47556;BME280;33291;46.222;26.460;2022-12-07T06:20:14;96238.22;;;0.32;100.00
47556;BME280;33291;46.222;26.460;2022-12-07T06:22:39;96243.97;;;0.36;100.00
47556;BME280;33291;46.222;26.460;2022-12-07T06:25:05;96249.88;;;0.38;100.00
47556;BME280;33291;46.222;26.460;2022-12-07T06:27:32;96231.00;;;0.39;100.00
47556;BME280;33291;46.222;26.460;2022-12-07T06:29:58;96243.66;;;0.42;100.00
47556;BME280;33291;46.222;26.460;2022-12-07T06:32:24;96231.16;;;0.36;100.00
47556;BME280;33291;46.222;26.460;2022-12-07T06:34:49;96232.41;;;0.45;100.00
47556;BME280;33291;46.222;26.460;2022-12-07T06:37:15;96232.50;;;0.43;100.00
47556;BME280;33291;46.222;26.460;2022-12-07T06:39:40;96203.66;;;0.24;100.00
47556;BME280;33291;46.222;26.460;2022-12-07T06:42:06;96244.34;;;0.46;100.00
47556;BME280;33291;46.222;26.460;2022-12-07T06:44:31;96237.63;;;0.43;100.00
47556;BME280;33291;46.222;26.460;2022-12-07T06:46:58;96250.03;;;0.51;100.00
47556;BME280;33291;46.222;26.460;2022-12-07T06:49:23;96238.03;;;0.51;100.00
47556;BME280;33291;46.222;26.460;2022-12-07T06:51:49;96247.63;;;0.48;100.00
47556;BME280;33291;46.222;26.460;2022-12-07T06:54:16;96240.84;;;0.47;100.00
47556;BME280;33291;46.222;26.460;2022-12-07T06:56:42;96249.94;;;0.52;100.00
47556;BME280;33291;46.222;26.460;2022-12-07T06:59:08;96243.16;;;0.51;100.00
47556;BME280;33291;46.222;26.460;2022-12-07T07:01:35;96257.53;;;0.54;100.00
47556;BME280;33291;46.222;26.460;2022-12-07T07:04:01;96243.16;;;0.51;100.00
47556;BME280;33291;46.222;26.460;2022-12-07T07:06:27;96258.78;;;0.63;100.00
47556;BME280;33291;46.222;26.460;2022-12-07T07:08:53;96240.50;;;0.53;100.00
47556;BME280;33291;46.222;26.460;2022-12-07T07:11:18;96253.75;;;0.61;100.00
47556;BME280;33291;46.222;26.460;2022-12-07T07:13:44;96267.81;;;0.70;100.00
47556;BME280;33291;46.222;26.460;2022-12-07T07:16:10;96251.84;;;0.65;100.00
47556;BME280;33291;46.222;26.460;2022-12-07T07:18:35;96259.03;;;0.74;100.00
47556;BME280;33291;46.222;26.460;2022-12-07T07:21:01;96256.72;;;0.69;100.00
47556;BME280;33291;46.222;26.460;2022-12-07T07:23:27;96263.31;;;0.74;100.00
47556;BME280;33291;46.222;26.460;2022-12-07T07:25:52;96251.25;;;0.76;100.00
47556;BME280;33291;46.222;26.460;2022-12-07T07:28:18;96260.34;;;0.81;100.00
47556;BME280;33291;46.222;26.460;2022-12-07T07:30:44;96261.06;;;0.83;100.00
47556;BME280;33291;46.222;26.460;2022-12-07T07:33:10;96261.84;;;0.85;100.00
47556;BME280;33291;46.222;26.460;2022-12-07T07:35:36;96259.91;;;0.89;100.00
47556;BME280;33291;46.222;26.460;2022-12-07T07:38:02;96253.03;;;0.89;100.00
47556;BME280;33291;46.222;26.460;2022-12-07T07:40:29;96258.75;;;0.95;100.00
47556;BME280;33291;46.222;26.460;2022-12-07T07:42:55;96233.44;;;0.88;100.00
47556;BME280;33291;46.222;26.460;2022-12-07T07:45:22;96260.81;;;1.04;100.00
47556;BME280;33291;46.222;26.460;2022-12-07T07:47:49;96262.28;;;1.08;100.00
47556;BME280;33291;46.222;26.460;2022-12-07T07:50:15;96254.59;;;1.08;100.00
47556;BME280;33291;46.222;26.460;2022-12-07T07:52:41;96244.25;;;1.10;100.00
47556;BME280;33291;46.222;26.460;2022-12-07T07:55:07;96247.84;;;1.21;100.00
47556;BME280;33291;46.222;26.460;2022-12-07T07:57:34;96241.78;;;1.22;100.00
47556;BME280;33291;46.222;26.460;2022-12-07T08:00:00;96224.38;;;1.13;100.00
47556;BME280;33291;46.222;26.460;2022-12-07T08:02:26;96242.19;;;1.31;100.00
47556;BME280;33291;46.222;26.460;2022-12-07T08:04:54;96246.81;;;1.40;100.00
47556;BME280;33291;46.222;26.460;2022-12-07T08:07:20;96250.91;;;1.42;100.00
47556;BME280;33291;46.222;26.460;2022-12-07T08:09:45;96239.81;;;1.42;100.00
47556;BME280;33291;46.222;26.460;2022-12-07T08:12:11;96243.69;;;1.49;100.00
47556;BME280;33291;46.222;26.460;2022-12-07T08:14:36;96232.97;;;1.57;100.00
47556;BME280;33291;46.222;26.460;2022-12-07T08:17:02;96243.34;;;1.70;100.00
47556;BME280;33291;46.222;26.460;2022-12-07T08:19:28;96238.97;;;1.72;100.00
47556;BME280;33291;46.222;26.460;2022-12-07T08:21:54;96243.72;;;1.78;100.00
47556;BME280;33291;46.222;26.460;2022-12-07T08:24:21;96252.19;;;1.94;100.00
47556;BME280;33291;46.222;26.460;2022-12-07T08:26:47;96245.19;;;1.97;100.00
47556;BME280;33291;46.222;26.460;2022-12-07T08:29:13;96227.94;;;1.99;100.00
47556;BME280;33291;46.222;26.460;2022-12-07T08:31:39;96229.84;;;2.09;100.00
47556;BME280;33291;46.222;26.460;2022-12-07T08:34:04;96217.75;;;2.11;100.00
47556;BME280;33291;46.222;26.460;2022-12-07T08:36:30;96218.84;;;2.22;100.00
47556;BME280;33291;46.222;26.460;2022-12-07T08:38:55;96225.81;;;2.34;100.00
47556;BME280;33291;46.222;26.460;2022-12-07T08:41:21;96223.13;;;2.36;100.00
47556;BME280;33291;46.222;26.460;2022-12-07T08:43:46;96220.19;;;2.42;100.00
47556;BME280;33291;46.222;26.460;2022-12-07T08:48:50;96185.19;;;2.39;100.00
47556;BME280;33291;46.222;26.460;2022-12-07T08:51:18;96208.75;;;2.60;100.00
47556;BME280;33291;46.222;26.460;2022-12-07T08:53:45;96196.41;;;2.65;100.00
47556;BME280;33291;46.222;26.460;2022-12-07T08:56:10;96213.09;;;2.73;100.00
47556;BME280;33291;46.222;26.460;2022-12-07T08:58:37;96209.22;;;2.80;100.00
47556;BME280;33291;46.222;26.460;2022-12-07T09:01:04;96206.78;;;2.91;100.00
47556;BME280;33291;46.222;26.460;2022-12-07T09:03:30;96198.16;;;2.92;100.00
47556;BME280;33291;46.222;26.460;2022-12-07T09:05:56;96205.97;;;3.03;100.00
47556;BME280;33291;46.222;26.460;2022-12-07T09:08:23;96199.53;;;3.11;100.00
47556;BME280;33291;46.222;26.460;2022-12-07T09:10:51;96192.34;;;3.16;100.00
47556;BME280;33291;46.222;26.460;2022-12-07T09:13:17;96198.22;;;3.31;100.00
47556;BME280;33291;46.222;26.460;2022-12-07T09:15:42;96182.25;;;3.38;100.00
47556;BME280;33291;46.222;26.460;2022-12-07T09:18:08;96193.78;;;3.71;100.00
47556;BME280;33291;46.222;26.460;2022-12-07T09:20:33;96182.16;;;3.79;100.00
47556;BME280;33291;46.222;26.460;2022-12-07T09:22:59;96180.81;;;3.86;100.00
47556;BME280;33291;46.222;26.460;2022-12-07T09:25:24;96170.78;;;3.94;100.00
47556;BME280;33291;46.222;26.460;2022-12-07T09:27:57;96166.22;;;4.11;100.00
47556;BME280;33291;46.222;26.460;2022-12-07T09:30:23;96165.56;;;4.20;100.00
47556;BME280;33291;46.222;26.460;2022-12-07T09:32:49;96160.59;;;4.30;93.53
47556;BME280;33291;46.222;26.460;2022-12-07T09:35:14;96162.59;;;4.50;83.24
47556;BME280;33291;46.222;26.460;2022-12-07T09:37:40;96171.97;;;4.75;76.79
47556;BME280;33291;46.222;26.460;2022-12-07T09:40:06;96151.69;;;4.82;74.26
47556;BME280;33291;46.222;26.460;2022-12-07T09:42:38;96156.59;;;4.98;73.01
47556;BME280;33291;46.222;26.460;2022-12-07T09:45:15;96148.72;;;5.00;76.75
47556;BME280;33291;46.222;26.460;2022-12-07T09:47:42;96133.13;;;5.01;72.74
47556;BME280;33291;46.222;26.460;2022-12-07T09:50:28;96144.06;;;5.16;75.79
47556;BME280;33291;46.222;26.460;2022-12-07T09:53:02;96138.66;;;5.19;76.46
47556;BME280;33291;46.222;26.460;2022-12-07T09:55:30;96146.06;;;5.24;73.79
47556;BME280;33291;46.222;26.460;2022-12-07T09:57:57;96141.75;;;5.36;71.76
47556;BME280;33291;46.222;26.460;2022-12-07T10:00:23;96139.31;;;5.45;72.37
47556;BME280;33291;46.222;26.460;2022-12-07T10:03:00;96147.44;;;5.63;69.75
47556;BME280;33291;46.222;26.460;2022-12-07T10:05:32;96150.34;;;5.70;70.08
47556;BME280;33291;46.222;26.460;2022-12-07T10:08:00;96106.66;;;5.67;68.62
47556;BME280;33291;46.222;26.460;2022-12-07T10:10:32;96134.84;;;5.81;67.82
47556;BME280;33291;46.222;26.460;2022-12-07T10:13:11;96143.75;;;5.88;68.84
47556;BME280;33291;46.222;26.460;2022-12-07T10:18:32;96131.28;;;6.16;68.72
47556;BME280;33291;46.222;26.460;2022-12-07T10:23:38;96148.16;;;6.54;66.41
47556;BME280;33291;46.222;26.460;2022-12-07T10:26:34;96137.09;;;6.52;64.29
47556;BME280;33291;46.222;26.460;2022-12-07T10:29:04;96126.31;;;6.47;64.36
47556;BME280;33291;46.222;26.460;2022-12-07T10:31:40;96139.00;;;6.50;61.70
47556;BME280;33291;46.222;26.460;2022-12-07T10:34:21;96142.06;;;6.44;62.31
47556;BME280;33291;46.222;26.460;2022-12-07T10:36:47;96148.88;;;6.45;62.15
47556;BME280;33291;46.222;26.460;2022-12-07T10:39:22;96121.38;;;6.44;61.12
47556;BME280;33291;46.222;26.460;2022-12-07T10:42:02;96123.91;;;6.55;61.60
47556;BME280;33291;46.222;26.460;2022-12-07T10:44:31;96146.84;;;6.60;62.48
47556;BME280;33291;46.222;26.460;2022-12-07T10:49:38;96111.78;;;6.88;60.25
47556;BME280;33291;46.222;26.460;2022-12-07T10:57:25;96127.47;;;7.29;56.00
47556;BME280;33291;46.222;26.460;2022-12-07T11:08:18;96124.91;;;7.70;55.02
47556;BME280;33291;46.222;26.460;2022-12-07T11:10:58;96094.59;;;7.60;55.08
47556;BME280;33291;46.222;26.460;2022-12-07T11:22:26;96123.91;;;7.82;54.48
47556;BME280;33291;46.222;26.460;2022-12-07T11:30:47;96149.59;;;8.05;53.23
47556;BME280;33291;46.222;26.460;2022-12-07T11:33:35;96123.38;;;7.98;52.40
47556;BME280;33291;46.222;26.460;2022-12-07T11:38:43;96136.00;;;8.22;54.22
47556;BME280;33291;46.222;26.460;2022-12-07T11:41:28;96133.69;;;8.29;53.46
47556;BME280;33291;46.222;26.460;2022-12-07T11:43:59;96132.66;;;8.41;54.01
47556;BME280;33291;46.222;26.460;2022-12-07T11:46:41;96126.75;;;8.39;54.36
47556;BME280;33291;46.222;26.460;2022-12-07T11:49:37;96126.25;;;8.45;54.15
47556;BME280;33291;46.222;26.460;2022-12-07T11:52:04;96125.69;;;8.42;53.42
47556;BME280;33291;46.222;26.460;2022-12-07T11:54:35;96128.09;;;8.33;51.72
47556;BME280;33291;46.222;26.460;2022-12-07T11:57:14;96129.44;;;8.18;52.47
47556;BME280;33291;46.222;26.460;2022-12-07T12:00:05;96113.81;;;7.98;52.67
47556;BME280;33291;46.222;26.460;2022-12-07T12:02:58;96120.94;;;7.96;52.36
47556;BME280;33291;46.222;26.460;2022-12-07T12:05:26;96125.97;;;7.88;51.21
47556;BME280;33291;46.222;26.460;2022-12-07T12:08:13;96131.00;;;7.90;52.13
47556;BME280;33291;46.222;26.460;2022-12-07T12:16:21;96099.31;;;7.76;52.86
47556;BME280;33291;46.222;26.460;2022-12-07T12:22:27;96123.91;;;7.92;52.70
47556;BME280;33291;46.222;26.460;2022-12-07T12:24:52;96105.16;;;7.78;52.83
47556;BME280;33291;46.222;26.460;2022-12-07T12:27:28;96110.28;;;7.90;53.20
47556;BME280;33291;46.222;26.460;2022-12-07T12:29:58;96087.81;;;7.69;52.52
47556;BME280;33291;46.222;26.460;2022-12-07T12:32:40;96104.34;;;7.78;52.65
47556;BME280;33291;46.222;26.460;2022-12-07T12:40:42;96108.53;;;7.69;54.07
47556;BME280;33291;46.222;26.460;2022-12-07T12:51:52;96116.88;;;7.73;55.40
47556;BME280;33291;46.222;26.460;2022-12-07T12:54:31;96129.69;;;7.74;55.61
47556;BME280;33291;46.222;26.460;2022-12-07T12:57:17;96100.28;;;7.54;56.18
47556;BME280;33291;46.222;26.460;2022-12-07T13:02:53;96130.06;;;7.60;56.75
47556;BME280;33291;46.222;26.460;2022-12-07T13:05:24;96140.81;;;7.55;57.40
47556;BME280;33291;46.222;26.460;2022-12-07T13:12:56;96143.31;;;7.36;59.13
47556;BME280;33291;46.222;26.460;2022-12-07T13:15:37;96138.19;;;7.24;61.59
47556;BME280;33291;46.222;26.460;2022-12-07T13:21:02;96135.59;;;7.03;68.62
47556;BME280;33291;46.222;26.460;2022-12-07T13:23:36;96147.34;;;6.86;74.03
47556;BME280;33291;46.222;26.460;2022-12-07T13:29:05;96156.63;;;6.56;75.60
47556;BME280;33291;46.222;26.460;2022-12-07T13:31:37;96153.22;;;6.45;74.06
47556;BME280;33291;46.222;26.460;2022-12-07T13:34:05;96170.53;;;6.33;74.43
47556;BME280;33291;46.222;26.460;2022-12-07T13:36:37;96168.00;;;6.21;76.93
47556;BME280;33291;46.222;26.460;2022-12-07T13:39:25;96164.13;;;6.04;78.70
47556;BME280;33291;46.222;26.460;2022-12-07T13:41:57;96160.00;;;6.02;78.11
47556;BME280;33291;46.222;26.460;2022-12-07T13:44:25;96155.03;;;5.87;78.72
47556;BME280;33291;46.222;26.460;2022-12-07T13:49:31;96175.94;;;5.84;71.75
47556;BME280;33291;46.222;26.460;2022-12-07T13:52:17;96180.31;;;5.84;74.10
47556;BME280;33291;46.222;26.460;2022-12-07T13:54:48;96164.09;;;5.70;75.30
47556;BME280;33291;46.222;26.460;2022-12-07T13:57:16;96181.25;;;5.72;77.70
47556;BME280;33291;46.222;26.460;2022-12-07T13:59:42;96181.38;;;5.59;77.93
47556;BME280;33291;46.222;26.460;2022-12-07T14:02:32;96172.53;;;5.50;75.69
47556;BME280;33291;46.222;26.460;2022-12-07T14:05:28;96175.69;;;5.54;75.08
47556;BME280;33291;46.222;26.460;2022-12-07T14:07:55;96167.34;;;5.39;76.98
47556;BME280;33291;46.222;26.460;2022-12-07T14:12:49;96167.69;;;5.34;78.71
47556;BME280;33291;46.222;26.460;2022-12-07T14:15:21;96169.81;;;5.29;78.60
47556;BME280;33291;46.222;26.460;2022-12-07T14:17:52;96179.63;;;5.24;78.48
47556;BME280;33291;46.222;26.460;2022-12-07T14:20:30;96186.44;;;5.13;79.40
47556;BME280;33291;46.222;26.460;2022-12-07T14:22:56;96182.16;;;5.01;78.86
47556;BME280;33291;46.222;26.460;2022-12-07T14:25:24;96164.72;;;4.80;80.51
47556;BME280;33291;46.222;26.460;2022-12-07T14:30:23;96187.72;;;4.84;80.88
47556;BME280;33291;46.222;26.460;2022-12-07T14:32:54;96161.16;;;4.70;80.76
47556;BME280;33291;46.222;26.460;2022-12-07T14:35:20;96191.13;;;4.84;80.89
47556;BME280;33291;46.222;26.460;2022-12-07T14:37:47;96177.13;;;4.75;81.20
47556;BME280;33291;46.222;26.460;2022-12-07T14:40:16;96187.13;;;4.80;81.00
47556;BME280;33291;46.222;26.460;2022-12-07T14:42:43;96189.81;;;4.78;81.48
47556;BME280;33291;46.222;26.460;2022-12-07T14:45:19;96193.44;;;4.76;81.29
47556;BME280;33291;46.222;26.460;2022-12-07T14:47:46;96184.38;;;4.70;81.67
47556;BME280;33291;46.222;26.460;2022-12-07T14:50:17;96188.44;;;4.61;82.14
47556;BME280;33291;46.222;26.460;2022-12-07T14:52:49;96204.84;;;4.60;82.10
47556;BME280;33291;46.222;26.460;2022-12-07T14:55:25;96198.38;;;4.55;82.54
47556;BME280;33291;46.222;26.460;2022-12-07T14:57:51;96188.34;;;4.39;83.06
47556;BME280;33291;46.222;26.460;2022-12-07T15:00:18;96203.47;;;4.43;83.06
47556;BME280;33291;46.222;26.460;2022-12-07T15:02:46;96193.16;;;4.43;83.19